sensor_id;sensor_type;location;lat;lon;timestamp;pressure;altitude;pressure_sealevel;temperature;humidity
79415;BME280;68864;44.972;19.612;2023-05-07T00:02:01;100667.34;;;17.15;50.03
79415;BME280;68864;44.972;19.612;2023-05-07T00:04:28;100686.22;;;17.25;49.97
79415;BME280;68864;44.972;19.612;2023-05-07T00:07:01;100653.66;;;17.02;49.90
79415;BME280;68864;44.972;19.612;2023-05-07T00:09:29;100647.25;;;16.98;49.93
79415;BME280;68864;44.972;19.612;2023-05-07T00:11:56;100683.81;;;17.20;49.85
79415;BME280;68864;44.972;19.612;2023-05-07T00:14:22;100640.00;;;16.97;49.84
79415;BME280;68864;44.972;19.612;2023-05-07T00:16:49;100659.72;;;17.08;50.09
79415;BME280;68864;44.972;19.612;2023-05-07T00:19:16;100682.63;;;17.17;49.96
79415;BME280;68864;44.972;19.612;2023-05-07T00:21:43;100684.63;;;17.09;50.22
79415;BME280;68864;44.972;19.612;2023-05-07T00:24:09;100685.03;;;17.12;50.08
79415;BME280;68864;44.972;19.612;2023-05-07T00:26:37;100680.22;;;17.12;50.18
79415;BME280;68864;44.972;19.612;2023-05-07T00:29:04;100672.97;;;17.11;50.09
79415;BME280;68864;44.972;19.612;2023-05-07T00:31:31;100629.97;;;16.82;50.37
79415;BME280;68864;44.972;19.612;2023-05-07T00:33:58;100664.94;;;16.99;50.39
79415;BME280;68864;44.972;19.612;2023-05-07T00:36:24;100664.94;;;16.99;50.15
79415;BME280;68864;44.972;19.612;2023-05-07T00:38:54;100681.44;;;17.04;50.04
79415;BME280;68864;44.972;19.612;2023-05-07T00:41:21;100670.19;;;17.00;50.25
79415;BME280;68864;44.972;19.612;2023-05-07T00:43:49;100673.00;;;16.97;50.30
79415;BME280;68864;44.972;19.612;2023-05-07T00:46:20;100677.84;;;16.93;50.40
79415;BME280;68864;44.972;19.612;2023-05-07T00:48:48;100661.75;;;16.93;50.42
79415;BME280;68864;44.972;19.612;2023-05-07T00:51:16;100632.00;;;16.71;50.26
79415;BME280;68864;44.972;19.612;2023-05-07T00:53:43;100656.94;;;16.80;50.62
79415;BME280;68864;44.972;19.612;2023-05-07T00:56:10;100664.56;;;16.79;51.22
79415;BME280;68864;44.972;19.612;2023-05-07T00:58:38;100672.59;;;16.84;50.69
79415;BME280;68864;44.972;19.612;2023-05-07T01:01:06;100674.63;;;16.87;50.62
79415;BME280;68864;44.972;19.612;2023-05-07T01:03:33;100683.06;;;16.84;50.93
79415;BME280;68864;44.972;19.612;2023-05-07T01:06:01;100679.06;;;16.81;50.87
79415;BME280;68864;44.972;19.612;2023-05-07T01:08:30;100661.38;;;16.66;51.02
79415;BME280;68864;44.972;19.612;2023-05-07T01:10:57;100681.47;;;16.76;51.30
79415;BME280;68864;44.972;19.612;2023-05-07T01:13:24;100666.59;;;16.68;51.10
79415;BME280;68864;44.972;19.612;2023-05-07T01:15:51;100677.44;;;16.77;51.25
79415;BME280;68864;44.972;19.612;2023-05-07T01:18:19;100674.63;;;16.73;51.12
79415;BME280;68864;44.972;19.612;2023-05-07T01:20:47;100676.66;;;16.73;51.43
79415;BME280;68864;44.972;19.612;2023-05-07T01:23:15;100688.31;;;16.75;51.49
79415;BME280;68864;44.972;19.612;2023-05-07T01:25:42;100685.50;;;16.67;51.50
79415;BME280;68864;44.972;19.612;2023-05-07T01:28:09;100684.69;;;16.63;51.78
79415;BME280;68864;44.972;19.612;2023-05-07T01:30:36;100677.06;;;16.67;51.52
79415;BME280;68864;44.972;19.612;2023-05-07T01:33:09;100688.31;;;16.64;51.72
79415;BME280;68864;44.972;19.612;2023-05-07T01:35:39;100695.13;;;16.59;51.73
79415;BME280;68864;44.972;19.612;2023-05-07T01:38:07;100702.34;;;16.53;52.00
79415;BME280;68864;44.972;19.612;2023-05-07T01:40:36;100699.94;;;16.52;52.25
79415;BME280;68864;44.972;19.612;2023-05-07T01:43:03;100693.50;;;16.48;52.39
79415;BME280;68864;44.972;19.612;2023-05-07T01:45:30;100686.66;;;16.42;52.14
79415;BME280;68864;44.972;19.612;2023-05-07T01:47:58;100688.25;;;16.36;52.25
79415;BME280;68864;44.972;19.612;2023-05-07T01:50:25;100694.28;;;16.38;52.41
79415;BME280;68864;44.972;19.612;2023-05-07T01:52:52;100701.09;;;16.22;53.09
79415;BME280;68864;44.972;19.612;2023-05-07T01:55:19;100696.69;;;16.28;52.50
79415;BME280;68864;44.972;19.612;2023-05-07T01:57:47;100703.91;;;16.29;52.71
79415;BME280;68864;44.972;19.612;2023-05-07T02:00:14;100701.91;;;16.26;52.86
79415;BME280;68864;44.972;19.612;2023-05-07T02:02:41;100702.31;;;16.21;52.96
79415;BME280;68864;44.972;19.612;2023-05-07T02:05:08;100705.13;;;16.21;53.14
79415;BME280;68864;44.972;19.612;2023-05-07T02:07:35;100700.31;;;16.22;53.04
79415;BME280;68864;44.972;19.612;2023-05-07T02:10:02;100701.09;;;16.19;53.24
79415;BME280;68864;44.972;19.612;2023-05-07T02:12:29;100703.50;;;16.17;53.08
79415;BME280;68864;44.972;19.612;2023-05-07T02:14:57;100691.03;;;16.18;53.29
79415;BME280;68864;44.972;19.612;2023-05-07T02:17:24;100688.63;;;16.13;53.45
79415;BME280;68864;44.972;19.612;2023-05-07T02:19:51;100680.59;;;16.11;53.48
79415;BME280;68864;44.972;19.612;2023-05-07T02:22:18;100677.75;;;16.04;53.73
79415;BME280;68864;44.972;19.612;2023-05-07T02:24:44;100667.31;;;15.94;53.66
79415;BME280;68864;44.972;19.612;2023-05-07T02:27:11;100676.56;;;16.05;53.66
79415;BME280;68864;44.972;19.612;2023-05-07T02:29:38;100667.31;;;16.01;53.89
79415;BME280;68864;44.972;19.612;2023-05-07T02:32:06;100677.34;;;16.02;53.78
79415;BME280;68864;44.972;19.612;2023-05-07T02:34:33;100661.25;;;15.96;53.97
79415;BME280;68864;44.972;19.612;2023-05-07T02:36:59;100656.03;;;15.98;53.99
79415;BME280;68864;44.972;19.612;2023-05-07T02:39:26;100656.84;;;15.91;53.94
79415;BME280;68864;44.972;19.612;2023-05-07T02:41:53;100674.53;;;15.99;53.96
79415;BME280;68864;44.972;19.612;2023-05-07T02:44:20;100676.53;;;15.98;53.90
79415;BME280;68864;44.972;19.612;2023-05-07T02:46:47;100671.72;;;16.02;53.79
79415;BME280;68864;44.972;19.612;2023-05-07T02:49:15;100674.13;;;16.04;53.87
79415;BME280;68864;44.972;19.612;2023-05-07T02:51:41;100675.75;;;16.01;54.01
79415;BME280;68864;44.972;19.612;2023-05-07T02:54:08;100671.72;;;15.99;53.97
79415;BME280;68864;44.972;19.612;2023-05-07T02:56:35;100681.75;;;16.00;54.14
79415;BME280;68864;44.972;19.612;2023-05-07T02:59:02;100684.56;;;16.00;54.30
79415;BME280;68864;44.972;19.612;2023-05-07T03:01:28;100679.75;;;16.00;54.17
79415;BME280;68864;44.972;19.612;2023-05-07T03:03:55;100678.97;;;16.00;53.89
79415;BME280;68864;44.972;19.612;2023-05-07T03:06:23;100681.34;;;15.98;54.07
79415;BME280;68864;44.972;19.612;2023-05-07T03:08:50;100686.56;;;15.96;54.28
79415;BME280;68864;44.972;19.612;2023-05-07T03:11:17;100684.56;;;15.93;54.14
79415;BME280;68864;44.972;19.612;2023-05-07T03:13:44;100683.75;;;15.88;54.20
79415;BME280;68864;44.972;19.612;2023-05-07T03:16:10;100686.16;;;15.86;54.19
79415;BME280;68864;44.972;19.612;2023-05-07T03:18:37;100670.03;;;15.76;54.31
79415;BME280;68864;44.972;19.612;2023-05-07T03:21:04;100682.13;;;15.84;54.22
79415;BME280;68864;44.972;19.612;2023-05-07T03:23:32;100688.13;;;15.79;54.40
79415;BME280;68864;44.972;19.612;2023-05-07T03:25:59;100690.53;;;15.77;54.56
79415;BME280;68864;44.972;19.612;2023-05-07T03:28:25;100694.53;;;15.76;54.43
79415;BME280;68864;44.972;19.612;2023-05-07T03:30:52;100696.56;;;15.75;54.70
79415;BME280;68864;44.972;19.612;2023-05-07T03:33:19;100680.06;;;15.67;54.33
79415;BME280;68864;44.972;19.612;2023-05-07T03:35:45;100702.97;;;15.72;54.66
79415;BME280;68864;44.972;19.612;2023-05-07T03:38:12;100691.72;;;15.69;54.71
79415;BME280;68864;44.972;19.612;2023-05-07T03:40:40;100688.88;;;15.65;54.78
79415;BME280;68864;44.972;19.612;2023-05-07T03:43:07;100698.13;;;15.62;55.05
79415;BME280;68864;44.972;19.612;2023-05-07T03:45:34;100703.31;;;15.64;55.23
79415;BME280;68864;44.972;19.612;2023-05-07T03:48:01;100706.53;;;15.66;54.89
79415;BME280;68864;44.972;19.612;2023-05-07T03:50:27;100704.97;;;15.68;54.98
79415;BME280;68864;44.972;19.612;2023-05-07T03:52:54;100704.16;;;15.71;54.80
79415;BME280;68864;44.972;19.612;2023-05-07T03:55:21;100700.53;;;15.71;54.91
79415;BME280;68864;44.972;19.612;2023-05-07T03:57:49;100707.38;;;15.77;54.97
79415;BME280;68864;44.972;19.612;2023-05-07T04:00:16;100712.63;;;15.78;54.65
79415;BME280;68864;44.972;19.612;2023-05-07T04:02:45;100715.03;;;15.80;54.65
79415;BME280;68864;44.972;19.612;2023-05-07T04:05:12;100720.66;;;15.83;54.71
79415;BME280;68864;44.972;19.612;2023-05-07T04:07:40;100714.22;;;15.83;54.49
79415;BME280;68864;44.972;19.612;2023-05-07T04:10:07;100718.25;;;15.82;54.36
79415;BME280;68864;44.972;19.612;2023-05-07T04:12:35;100723.06;;;15.85;54.49
79415;BME280;68864;44.972;19.612;2023-05-07T04:15:04;100716.66;;;15.84;54.57
79415;BME280;68864;44.972;19.612;2023-05-07T04:17:30;100717.06;;;15.86;54.44
79415;BME280;68864;44.972;19.612;2023-05-07T04:19:57;100725.13;;;15.88;54.46
79415;BME280;68864;44.972;19.612;2023-05-07T04:22:24;100716.22;;;15.82;54.40
79415;BME280;68864;44.972;19.612;2023-05-07T04:24:51;100732.34;;;15.93;54.56
79415;BME280;68864;44.972;19.612;2023-05-07T04:27:17;100724.31;;;15.87;54.43
79415;BME280;68864;44.972;19.612;2023-05-07T04:29:44;100731.53;;;15.96;54.35
79415;BME280;68864;44.972;19.612;2023-05-07T04:32:14;100727.16;;;15.95;54.53
79415;BME280;68864;44.972;19.612;2023-05-07T04:34:40;100729.94;;;15.91;54.54
79415;BME280;68864;44.972;19.612;2023-05-07T04:37:07;100732.34;;;15.93;54.56
79415;BME280;68864;44.972;19.612;2023-05-07T04:39:34;100730.31;;;15.89;54.78
79415;BME280;68864;44.972;19.612;2023-05-07T04:42:01;100737.16;;;15.92;55.01
79415;BME280;68864;44.972;19.612;2023-05-07T04:44:28;100748.03;;;16.01;55.02
79415;BME280;68864;44.972;19.612;2023-05-07T04:46:56;100743.63;;;16.03;55.13
79415;BME280;68864;44.972;19.612;2023-05-07T04:49:24;100750.06;;;16.11;55.00
79415;BME280;68864;44.972;19.612;2023-05-07T04:51:51;100756.13;;;16.13;55.22
79415;BME280;68864;44.972;19.612;2023-05-07T04:54:18;100755.31;;;16.16;55.16
79415;BME280;68864;44.972;19.612;2023-05-07T04:56:44;100761.38;;;16.25;55.45
79415;BME280;68864;44.972;19.612;2023-05-07T04:59:11;100761.41;;;16.28;55.29
79415;BME280;68864;44.972;19.612;2023-05-07T05:01:38;100755.75;;;16.36;55.18
79415;BME280;68864;44.972;19.612;2023-05-07T05:04:05;100756.59;;;16.40;55.24
79415;BME280;68864;44.972;19.612;2023-05-07T05:06:33;100765.03;;;16.47;55.06
79415;BME280;68864;44.972;19.612;2023-05-07T05:09:00;100751.38;;;16.52;55.05
79415;BME280;68864;44.972;19.612;2023-05-07T05:11:27;100762.66;;;16.59;55.05
79415;BME280;68864;44.972;19.612;2023-05-07T05:13:53;100746.56;;;16.56;55.25
79415;BME280;68864;44.972;19.612;2023-05-07T05:16:20;100748.63;;;16.70;55.04
79415;BME280;68864;44.972;19.612;2023-05-07T05:18:47;100747.00;;;16.69;54.99
79415;BME280;68864;44.972;19.612;2023-05-07T05:21:14;100746.63;;;16.74;54.46
79415;BME280;68864;44.972;19.612;2023-05-07T05:23:42;100745.00;;;16.73;53.94
79415;BME280;68864;44.972;19.612;2023-05-07T05:26:08;100754.66;;;16.76;54.07
79415;BME280;68864;44.972;19.612;2023-05-07T05:28:35;100754.25;;;16.81;54.45
79415;BME280;68864;44.972;19.612;2023-05-07T05:31:02;100749.84;;;16.87;54.54
79415;BME280;68864;44.972;19.612;2023-05-07T05:33:29;100762.72;;;16.95;54.15
79415;BME280;68864;44.972;19.612;2023-05-07T05:35:55;100767.53;;;16.98;54.08
79415;BME280;68864;44.972;19.612;2023-05-07T05:38:22;100773.97;;;17.05;54.29
79415;BME280;68864;44.972;19.612;2023-05-07T05:40:50;100770.75;;;17.14;53.78
79415;BME280;68864;44.972;19.612;2023-05-07T05:43:17;100775.16;;;17.19;53.63
79415;BME280;68864;44.972;19.612;2023-05-07T05:45:44;100772.75;;;17.24;53.67
79415;BME280;68864;44.972;19.612;2023-05-07T05:48:10;100775.97;;;17.33;53.43
79415;BME280;68864;44.972;19.612;2023-05-07T05:50:37;100771.13;;;17.41;53.22
79415;BME280;68864;44.972;19.612;2023-05-07T05:53:04;100771.13;;;17.48;53.48
79415;BME280;68864;44.972;19.612;2023-05-07T05:55:31;100753.00;;;17.45;53.06
79415;BME280;68864;44.972;19.612;2023-05-07T05:57:59;100762.63;;;17.62;52.25
79415;BME280;68864;44.972;19.612;2023-05-07T06:00:27;100761.81;;;17.58;52.07
79415;BME280;68864;44.972;19.612;2023-05-07T06:02:53;100766.25;;;17.63;51.80
79415;BME280;68864;44.972;19.612;2023-05-07T06:05:20;100766.63;;;17.75;52.65
79415;BME280;68864;44.972;19.612;2023-05-07T06:07:47;100749.69;;;17.79;51.95
79415;BME280;68864;44.972;19.612;2023-05-07T06:10:14;100761.72;;;17.90;51.07
79415;BME280;68864;44.972;19.612;2023-05-07T06:12:40;100759.31;;;17.92;51.22
79415;BME280;68864;44.972;19.612;2023-05-07T06:15:09;100762.13;;;17.92;51.47
79415;BME280;68864;44.972;19.612;2023-05-07T06:17:36;100770.13;;;18.04;50.75
79415;BME280;68864;44.972;19.612;2023-05-07T06:20:04;100762.47;;;18.05;50.44
79415;BME280;68864;44.972;19.612;2023-05-07T06:22:31;100766.88;;;18.09;49.71
79415;BME280;68864;44.972;19.612;2023-05-07T06:24:57;100755.63;;;18.02;49.64
79415;BME280;68864;44.972;19.612;2023-05-07T06:27:24;100772.53;;;18.09;49.33
79415;BME280;68864;44.972;19.612;2023-05-07T06:29:51;100753.19;;;18.11;49.17
79415;BME280;68864;44.972;19.612;2023-05-07T06:32:19;100772.06;;;18.25;49.39
79415;BME280;68864;44.972;19.612;2023-05-07T06:34:46;100769.63;;;18.23;49.86
79415;BME280;68864;44.972;19.612;2023-05-07T06:37:13;100767.16;;;18.36;49.07
79415;BME280;68864;44.972;19.612;2023-05-07T06:39:39;100762.25;;;18.44;50.05
79415;BME280;68864;44.972;19.612;2023-05-07T06:42:06;100767.03;;;18.61;48.93
79415;BME280;68864;44.972;19.612;2023-05-07T06:44:33;100769.78;;;18.72;49.42
79415;BME280;68864;44.972;19.612;2023-05-07T06:47:00;100764.09;;;18.75;48.76
79415;BME280;68864;44.972;19.612;2023-05-07T06:49:28;100773.31;;;18.86;48.84
79415;BME280;68864;44.972;19.612;2023-05-07T06:51:54;100774.81;;;18.98;48.10
79415;BME280;68864;44.972;19.612;2023-05-07T06:54:22;100772.63;;;19.20;48.21
79415;BME280;68864;44.972;19.612;2023-05-07T06:56:49;100771.56;;;19.44;47.00
79415;BME280;68864;44.972;19.612;2023-05-07T06:59:15;100761.78;;;19.56;47.12
79415;BME280;68864;44.972;19.612;2023-05-07T07:01:42;100758.00;;;19.69;46.48
79415;BME280;68864;44.972;19.612;2023-05-07T07:04:09;100769.81;;;19.95;46.55
79415;BME280;68864;44.972;19.612;2023-05-07T07:06:37;100768.84;;;20.08;46.21
79415;BME280;68864;44.972;19.612;2023-05-07T07:09:04;100756.91;;;20.24;45.30
79415;BME280;68864;44.972;19.612;2023-05-07T07:11:30;100760.44;;;20.32;44.69
79415;BME280;68864;44.972;19.612;2023-05-07T07:13:57;100758.34;;;20.39;44.91
79415;BME280;68864;44.972;19.612;2023-05-07T07:16:24;100762.56;;;20.54;44.64
79415;BME280;68864;44.972;19.612;2023-05-07T07:18:51;100767.59;;;20.70;44.90
79415;BME280;68864;44.972;19.612;2023-05-07T07:21:17;100764.44;;;20.91;44.23
79415;BME280;68864;44.972;19.612;2023-05-07T07:23:46;100766.44;;;21.14;43.78
79415;BME280;68864;44.972;19.612;2023-05-07T07:26:12;100766.63;;;21.30;42.92
79415;BME280;68864;44.972;19.612;2023-05-07T07:28:43;100771.53;;;21.50;43.81
79415;BME280;68864;44.972;19.612;2023-05-07T07:31:10;100770.03;;;21.65;43.39
79415;BME280;68864;44.972;19.612;2023-05-07T07:33:37;100764.66;;;21.70;42.62
79415;BME280;68864;44.972;19.612;2023-05-07T07:36:04;100771.13;;;21.71;42.33
79415;BME280;68864;44.972;19.612;2023-05-07T07:38:31;100761.38;;;21.92;43.07
79415;BME280;68864;44.972;19.612;2023-05-07T07:40:59;100765.38;;;22.14;42.09
79415;BME280;68864;44.972;19.612;2023-05-07T07:43:26;100765.66;;;22.39;41.51
79415;BME280;68864;44.972;19.612;2023-05-07T07:45:53;100765.34;;;22.53;40.96
79415;BME280;68864;44.972;19.612;2023-05-07T07:48:19;100772.00;;;22.63;40.55
79415;BME280;68864;44.972;19.612;2023-05-07T07:50:48;100744.50;;;22.60;40.96
79415;BME280;68864;44.972;19.612;2023-05-07T07:53:16;100765.47;;;22.82;40.26
79415;BME280;68864;44.972;19.612;2023-05-07T07:55:43;100781.84;;;22.94;40.14
79415;BME280;68864;44.972;19.612;2023-05-07T07:58:11;100779.06;;;23.07;40.24
79415;BME280;68864;44.972;19.612;2023-05-07T08:00:38;100774.56;;;23.26;41.03
79415;BME280;68864;44.972;19.612;2023-05-07T08:03:04;100772.84;;;23.45;39.72
79415;BME280;68864;44.972;19.612;2023-05-07T08:05:32;100779.78;;;23.60;39.72
79415;BME280;68864;44.972;19.612;2023-05-07T08:07:59;100778.03;;;23.79;39.90
79415;BME280;68864;44.972;19.612;2023-05-07T08:10:25;100775.28;;;23.75;38.33
79415;BME280;68864;44.972;19.612;2023-05-07T08:12:52;100776.84;;;23.92;38.28
79415;BME280;68864;44.972;19.612;2023-05-07T08:15:20;100774.59;;;24.00;38.22
79415;BME280;68864;44.972;19.612;2023-05-07T08:17:47;100766.94;;;24.38;39.08
79415;BME280;68864;44.972;19.612;2023-05-07T08:20:14;100776.53;;;24.70;37.39
79415;BME280;68864;44.972;19.612;2023-05-07T08:22:40;100761.63;;;24.91;37.34
79415;BME280;68864;44.972;19.612;2023-05-07T08:25:08;100772.41;;;25.21;35.79
79415;BME280;68864;44.972;19.612;2023-05-07T08:27:35;100767.31;;;25.51;35.99
79415;BME280;68864;44.972;19.612;2023-05-07T08:30:02;100770.28;;;25.82;35.42
79415;BME280;68864;44.972;19.612;2023-05-07T08:32:30;100776.28;;;26.18;35.59
79415;BME280;68864;44.972;19.612;2023-05-07T08:34:57;100770.81;;;26.33;33.83
79415;BME280;68864;44.972;19.612;2023-05-07T08:37:23;100771.78;;;26.61;33.04
79415;BME280;68864;44.972;19.612;2023-05-07T08:39:50;100769.56;;;26.96;34.12
79415;BME280;68864;44.972;19.612;2023-05-07T08:42:17;100774.69;;;27.10;33.84
79415;BME280;68864;44.972;19.612;2023-05-07T08:44:45;100770.16;;;27.49;33.48
79415;BME280;68864;44.972;19.612;2023-05-07T08:47:13;100767.19;;;27.71;32.25
79415;BME280;68864;44.972;19.612;2023-05-07T08:49:41;100770.66;;;27.84;31.08
79415;BME280;68864;44.972;19.612;2023-05-07T08:52:08;100766.97;;;28.01;31.79
79415;BME280;68864;44.972;19.612;2023-05-07T08:54:34;100766.38;;;27.97;30.12
79415;BME280;68864;44.972;19.612;2023-05-07T08:57:03;100765.38;;;28.28;31.51
79415;BME280;68864;44.972;19.612;2023-05-07T08:59:30;100758.63;;;28.49;31.53
79415;BME280;68864;44.972;19.612;2023-05-07T09:01:56;100759.75;;;28.52;30.19
79415;BME280;68864;44.972;19.612;2023-05-07T09:04:23;100751.06;;;28.70;31.82
79415;BME280;68864;44.972;19.612;2023-05-07T09:06:51;100755.09;;;28.96;30.67
79415;BME280;68864;44.972;19.612;2023-05-07T09:09:18;100761.09;;;29.07;30.88
79415;BME280;68864;44.972;19.612;2023-05-07T09:11:45;100756.94;;;28.84;30.47
79415;BME280;68864;44.972;19.612;2023-05-07T09:14:11;100761.75;;;28.60;30.43
79415;BME280;68864;44.972;19.612;2023-05-07T09:16:38;100763.19;;;28.65;31.12
79415;BME280;68864;44.972;19.612;2023-05-07T09:19:05;100765.56;;;28.66;31.92
79415;BME280;68864;44.972;19.612;2023-05-07T09:21:32;100760.97;;;28.60;31.73
79415;BME280;68864;44.972;19.612;2023-05-07T09:24:00;100750.94;;;28.55;30.94
79415;BME280;68864;44.972;19.612;2023-05-07T09:26:26;100752.00;;;28.06;30.29
79415;BME280;68864;44.972;19.612;2023-05-07T09:28:53;100747.13;;;27.71;31.54
79415;BME280;68864;44.972;19.612;2023-05-07T09:31:20;100749.34;;;27.57;30.71
79415;BME280;68864;44.972;19.612;2023-05-07T09:33:48;100751.53;;;27.35;31.30
79415;BME280;68864;44.972;19.612;2023-05-07T09:36:15;100738.47;;;27.34;31.15
79415;BME280;68864;44.972;19.612;2023-05-07T09:38:42;100743.25;;;27.28;31.08
79415;BME280;68864;44.972;19.612;2023-05-07T09:41:12;100740.38;;;27.19;30.83
79415;BME280;68864;44.972;19.612;2023-05-07T09:43:40;100744.31;;;27.03;32.03
79415;BME280;68864;44.972;19.612;2023-05-07T09:46:12;100744.63;;;26.96;32.14
79415;BME280;68864;44.972;19.612;2023-05-07T09:48:41;100734.25;;;26.89;33.46
79415;BME280;68864;44.972;19.612;2023-05-07T09:51:25;100743.75;;;26.86;32.50
79415;BME280;68864;44.972;19.612;2023-05-07T09:53:56;100742.22;;;26.95;33.56
79415;BME280;68864;44.972;19.612;2023-05-07T09:56:25;100741.41;;;26.94;33.97
79415;BME280;68864;44.972;19.612;2023-05-07T09:58:54;100724.69;;;26.83;32.87
79415;BME280;68864;44.972;19.612;2023-05-07T10:01:23;100734.69;;;26.79;32.07
79415;BME280;68864;44.972;19.612;2023-05-07T10:03:52;100734.47;;;26.73;33.30
79415;BME280;68864;44.972;19.612;2023-05-07T10:06:19;100739.50;;;26.60;31.59
79415;BME280;68864;44.972;19.612;2023-05-07T10:08:46;100724.69;;;26.43;31.40
79415;BME280;68864;44.972;19.612;2023-05-07T10:11:14;100732.41;;;26.34;31.04
79415;BME280;68864;44.972;19.612;2023-05-07T10:13:44;100724.06;;;26.18;31.25
79415;BME280;68864;44.972;19.612;2023-05-07T10:16:12;100730.06;;;26.20;32.09
79415;BME280;68864;44.972;19.612;2023-05-07T10:18:40;100731.38;;;26.19;32.48
79415;BME280;68864;44.972;19.612;2023-05-07T10:21:08;100735.56;;;26.05;31.14
79415;BME280;68864;44.972;19.612;2023-05-07T10:23:38;100722.88;;;25.84;31.85
79415;BME280;68864;44.972;19.612;2023-05-07T10:26:08;100724.25;;;25.80;32.82
79415;BME280;68864;44.972;19.612;2023-05-07T10:28:39;100725.94;;;25.68;32.23
79415;BME280;68864;44.972;19.612;2023-05-07T10:31:18;100726.88;;;25.65;32.05
79415;BME280;68864;44.972;19.612;2023-05-07T10:33:51;100715.44;;;25.65;32.65
79415;BME280;68864;44.972;19.612;2023-05-07T10:36:19;100715.31;;;25.68;33.55
79415;BME280;68864;44.972;19.612;2023-05-07T10:38:47;100717.06;;;25.66;32.72
79415;BME280;68864;44.972;19.612;2023-05-07T10:41:14;100712.47;;;25.56;33.27
79415;BME280;68864;44.972;19.612;2023-05-07T10:43:43;100724.94;;;25.62;32.80
79415;BME280;68864;44.972;19.612;2023-05-07T10:46:15;100726.56;;;25.50;34.20
79415;BME280;68864;44.972;19.612;2023-05-07T10:49:06;100716.84;;;25.48;34.75
79415;BME280;68864;44.972;19.612;2023-05-07T10:51:34;100720.84;;;25.50;35.81
79415;BME280;68864;44.972;19.612;2023-05-07T10:54:22;100719.13;;;25.53;36.81
79415;BME280;68864;44.972;19.612;2023-05-07T10:56:50;100704.84;;;25.53;35.30
79415;BME280;68864;44.972;19.612;2023-05-07T10:59:33;100705.13;;;25.46;32.10
79415;BME280;68864;44.972;19.612;2023-05-07T11:02:07;100706.03;;;25.43;34.36
79415;BME280;68864;44.972;19.612;2023-05-07T11:04:36;100702.84;;;25.41;34.27
79415;BME280;68864;44.972;19.612;2023-05-07T11:07:28;100704.09;;;25.40;35.89
79415;BME280;68864;44.972;19.612;2023-05-07T11:10:05;100697.72;;;25.36;35.78
79415;BME280;68864;44.972;19.612;2023-05-07T11:13:03;100703.78;;;25.38;35.83
79415;BME280;68864;44.972;19.612;2023-05-07T11:15:37;100704.78;;;25.44;36.68
79415;BME280;68864;44.972;19.612;2023-05-07T11:18:06;100697.66;;;25.48;36.96
79415;BME280;68864;44.972;19.612;2023-05-07T11:20:56;100692.75;;;25.49;37.18
79415;BME280;68864;44.972;19.612;2023-05-07T11:26:29;100703.63;;;25.41;34.34
79415;BME280;68864;44.972;19.612;2023-05-07T11:28:57;100692.72;;;25.27;34.02
79415;BME280;68864;44.972;19.612;2023-05-07T11:31:26;100692.53;;;25.21;34.57
79415;BME280;68864;44.972;19.612;2023-05-07T11:33:57;100688.41;;;25.22;34.95
79415;BME280;68864;44.972;19.612;2023-05-07T11:36:24;100700.41;;;25.17;34.51
79415;BME280;68864;44.972;19.612;2023-05-07T11:38:52;100689.47;;;25.16;34.40
79415;BME280;68864;44.972;19.612;2023-05-07T11:41:19;100697.22;;;25.15;34.15
79415;BME280;68864;44.972;19.612;2023-05-07T11:43:58;100688.56;;;25.19;34.23
79415;BME280;68864;44.972;19.612;2023-05-07T11:46:27;100696.63;;;25.20;36.01
79415;BME280;68864;44.972;19.612;2023-05-07T11:48:55;100697.78;;;25.23;35.82
79415;BME280;68864;44.972;19.612;2023-05-07T11:51:23;100697.78;;;25.23;35.05
79415;BME280;68864;44.972;19.612;2023-05-07T11:53:51;100699.16;;;25.18;34.49
79415;BME280;68864;44.972;19.612;2023-05-07T11:56:19;100696.63;;;25.20;33.82
79415;BME280;68864;44.972;19.612;2023-05-07T11:58:46;100698.00;;;25.16;32.40
79415;BME280;68864;44.972;19.612;2023-05-07T12:01:14;100693.34;;;25.09;32.59
79415;BME280;68864;44.972;19.612;2023-05-07T12:03:43;100692.09;;;25.10;32.21
79415;BME280;68864;44.972;19.612;2023-05-07T12:06:13;100697.34;;;25.12;33.16
79415;BME280;68864;44.972;19.612;2023-05-07T12:08:41;100694.50;;;25.12;33.36
79415;BME280;68864;44.972;19.612;2023-05-07T12:11:09;100696.56;;;25.11;33.02
79415;BME280;68864;44.972;19.612;2023-05-07T12:13:37;100691.97;;;25.14;33.88
79415;BME280;68864;44.972;19.612;2023-05-07T12:16:05;100687.84;;;25.15;34.03
79415;BME280;68864;44.972;19.612;2023-05-07T12:18:34;100685.47;;;25.13;33.86
79415;BME280;68864;44.972;19.612;2023-05-07T12:21:01;100691.06;;;25.17;33.39
79415;BME280;68864;44.972;19.612;2023-05-07T12:23:30;100687.75;;;25.18;33.53
79415;BME280;68864;44.972;19.612;2023-05-07T12:25:56;100686.59;;;25.16;33.01
79415;BME280;68864;44.972;19.612;2023-05-07T12:28:23;100676.50;;;25.02;33.20
79415;BME280;68864;44.972;19.612;2023-05-07T12:30:50;100679.44;;;25.11;33.56
79415;BME280;68864;44.972;19.612;2023-05-07T12:33:18;100675.19;;;25.16;33.61
79415;BME280;68864;44.972;19.612;2023-05-07T12:35:47;100670.75;;;25.15;33.80
79415;BME280;68864;44.972;19.612;2023-05-07T12:38:15;100665.03;;;25.15;33.78
79415;BME280;68864;44.972;19.612;2023-05-07T12:40:45;100665.03;;;25.15;33.95
79415;BME280;68864;44.972;19.612;2023-05-07T12:43:15;100653.31;;;25.13;33.80
79415;BME280;68864;44.972;19.612;2023-05-07T12:45:44;100652.03;;;25.14;33.01
79415;BME280;68864;44.972;19.612;2023-05-07T12:48:11;100656.28;;;25.09;31.48